Weather observations for the past three days for
Red Oak
Imperial (Metric)
Date Time (cdt) Wind (mph) Vis. (mi.) Weather Sky Cond. Temperature (ºF) Relative Humidity Wind Chill (°F) Heat Index (°F) Pressure Precipitation (in)
Air Dwpt 6 hour altimeter (in) sea level (mb) 1 hr 3 hr 6 hr
Max. Min.
31 01:55 SW 2 6.00 Fog/Mist CLR 71.6 71.6 100% 29.83 0.0
31 01:35 S 2 6.00 Fog/Mist CLR 71.6 71.6 100% 29.83 0.0
31 01:15 SW 1 7.00 Fog/Mist CLR 71.6 69.8 94% 29.83 0.0
31 00:55 Calm 10.00 Fair CLR 73.4 71.6 90.9 72.7 94% 29.83 0.0
31 00:35 NE 1 10.00 Fair CLR 73.4 73.4 100% 29.82 0.0
31 00:15 SW 1 10.00 Fair CLR 75.2 73.4 94% 74 29.82 0.0
30 23:55 S 1 9.00 Fair CLR 75.2 75.2 100% 73 29.82 0.0
30 23:35 SW 1 9.00 Fair CLR 75.2 73.4 94% 74 29.82 0.0
30 23:15 Calm 9.00 Fair CLR 75.2 75.2 100% 73 29.82 0.0
30 22:55 Calm 10.00 Fair CLR 75.2 73.4 94% 74 29.82 0.0
30 22:35 E 2 10.00 Fair CLR 77 75.2 94% 78 29.83 0.0
30 22:15 Calm 10.00 Fair CLR 77 75.2 94% 78 29.82 0.0
30 21:55 E 1 10.00 Fair CLR 77 75.2 94% 78 29.82 0.0
30 21:35 NE 2 10.00 Fair CLR 78.8 75.2 89% 82 29.82 0.0
30 21:15 N 2 10.00 Fair CLR 78.8 77 94% 83 29.81 0.0
30 20:35 NE 3 10.00 Fair CLR 82.4 77 84% 91 29.8 0.0
30 20:15 E 1 10.00 Fair CLR 84.2 77 79% 94 29.8 0.0
30 19:55 SE 2 10.00 Fair CLR 86 77 75% 97 29.79 0.0
30 19:35 S 2 10.00 Fair CLR 87.8 78.8 75% 102 29.79 0.0
30 19:15 SE 1 10.00 Fair CLR 89.6 78.8 71% 105 29.79 0.0
30 18:55 S 2 10.00 Fair CLR 89.6 78.8 92.5 87.3 71% 105 29.79 0.0
30 18:35 S 1 10.00 Fair CLR 91.4 77 63% 105 29.79 0.0
30 18:15 S 6 10.00 Fair CLR 91.4 77 63% 105 29.79 0.0
30 17:55 S 5 10.00 Fair CLR 91.4 77 63% 105 29.79 0.0
30 17:35 SW 5 10.00 Fair CLR 89.6 75.2 63% 100 29.78 0.0
30 17:15 S 8 10.00 Fair CLR 91.4 75.2 59% 103 29.78 0.0
30 16:55 S 10 10.00 Fair CLR 91.4 75.2 59% 103 29.79 0.0
30 16:35 S 13 G 18 10.00 Fair CLR 89.6 73.4 59% 98 29.79 0.0
30 16:16 S 12 10.00 Fair CLR 91.4 75.2 59% 103 29.79 0.0
30 15:55 S 7 10.00 Fair CLR 91.4 75.2 59% 103 29.8 0.0
30 15:35 SW 7 10.00 Fair CLR 89.6 75.2 63% 100 29.81 0.0
30 15:15 S 9 10.00 Fair CLR 89.6 73.4 59% 98 29.81 0.0
30 14:55 SW 12 10.00 Fair CLR 89.6 73.4 59% 98 29.81 0.0
30 14:35 S 15 10.00 Fair CLR 91.4 71.6 52% 99 29.8 0.0
30 14:15 SW 16 G 21 10.00 Fair CLR 89.6 69.8 52% 95 29.81 0.0
30 13:55 SW 16 G 22 10.00 Fair CLR 89.6 69.8 52% 95 29.82 0.0
30 13:36 SW 13 G 21 10.00 Fair CLR 89.6 69.8 52% 95 29.83 0.0
30 13:15 S 17 G 22 10.00 Fair CLR 87.8 69.8 55% 93 29.83 0.0
30 12:55 S 12 10.00 Fair CLR 87.8 69.8 88.2 70.3 55% 93 29.83 0.0
30 12:35 S 14 10.00 Fair CLR 87.8 69.8 55% 93 29.84 0.0
30 12:15 S 10 10.00 Fair CLR 86 71.6 62% 92 29.85 0.0
30 11:55 S 10 10.00 Fair CLR 84.2 69.8 62% 88 29.86 0.0
30 11:35 SE 7 10.00 Fair CLR 82.4 69.8 66% 86 29.85 0.0
30 11:15 Vrbl 6 10.00 Fair CLR 82.4 69.8 66% 86 29.86 0.0
30 10:56 Vrbl 2 10.00 Fair CLR 80.6 69.8 70% 84 29.86 0.0
30 10:35 SE 9 10.00 Fair CLR 78.8 68 70% 81 29.84 0.0
30 10:15 S 10 10.00 Fair CLR 78.8 68 70% 81 29.84 0.0
30 09:55 S 7 10.00 Fair CLR 77 68 74% 79 29.85 0.0
30 09:35 S 8 10.00 Fair CLR 77 68 74% 79 29.85 0.0
30 09:15 S 8 10.00 Fair CLR 75.2 68 78% 76 29.83 0.0
30 08:55 S 6 10.00 Fair CLR 75.2 68 78% 76 29.84 0.0
30 08:35 S 3 10.00 Fair CLR 73.4 68 83% 29.84 0.0
30 08:16 S 6 10.00 Fair CLR 71.6 69.8 94% 29.85 0.0
30 07:55 S 3 10.00 Fair CLR 71.6 69.8 94% 29.86 0.0
30 07:35 SE 3 7.00 A Few Clouds FEW120 71.6 69.8 94% 29.86 0.0
30 07:15 S 3 8.00 Partly Cloudy SCT120 71.6 69.8 94% 29.86 0.0
30 06:55 S 5 10.00 A Few Clouds FEW110 73.4 68 78.1 72.1 83% 29.87 0.0 0.05
30 06:35 Vrbl 3 10.00 Partly Cloudy FEW048 SCT070 SCT110 73.4 68 83% 29.87 0.0
30 06:15 SW 13 G 24 1.25 Heavy Rain Haze SCT010 BKN047 OVC110 73.4 68 83% 29.85 0.0
30 05:55 NW 5 10.00 Overcast FEW065 SCT075 OVC110 75.2 68 78% 76 29.86 0.0
30 05:35 SW 3 10.00 Mostly Cloudy FEW040 SCT090 BKN120 75.2 66.2 74% 77 29.84 0.0
30 05:15 S 6 10.00 Partly Cloudy FEW050 SCT100 SCT120 75.2 66.2 74% 77 29.83 0.0
30 04:55 Vrbl 2 10.00 A Few Clouds FEW110 75.2 66.2 74% 77 29.84 0.0
30 04:35 SW 2 10.00 Fair CLR 75.2 68 78% 76 29.84 0.0
30 04:15 SW 3 10.00 Fair CLR 75.2 68 78% 76 29.83 0.0
30 03:55 S 6 10.00 Fair CLR 75.2 66.2 74% 77 29.83 0.0
30 03:35 S 6 10.00 Fair CLR 77 66.2 69% 79 29.83 0.0
30 03:15 S 7 10.00 Fair CLR 77 66.2 69% 79 29.83 0.0
30 02:55 S 9 10.00 Fair CLR 77 66.2 69% 79 29.83 0.0
30 02:35 S 10 10.00 Fair CLR 77 66.2 69% 79 29.83 0.0
30 02:15 S 9 10.00 Fair CLR 77 66.2 69% 79 29.83 0.0
30 01:55 S 10 10.00 Fair CLR 77 66.2 69% 79 29.84 0.0
30 01:35 S 12 10.00 Fair CLR 77 66.2 69% 79 29.84 0.0
30 01:15 S 10 10.00 Fair CLR 77 66.2 69% 79 29.84 0.0
30 00:55 S 9 10.00 Fair CLR 77 66.2 86.4 77.4 69% 79 29.84 0.0
30 00:35 S 9 10.00 Fair CLR 77 66.2 69% 79 29.84 0.0
30 00:15 S 9 10.00 Fair CLR 78.8 66.2 65% 81 29.84 0.0
29 23:55 S 8 10.00 Fair CLR 78.8 68 70% 81 29.84 0.0
29 23:35 S 8 10.00 Fair CLR 78.8 68 70% 81 29.84 0.0
29 23:15 S 7 10.00 Fair CLR 78.8 68 70% 81 29.84 0.0
29 22:55 S 9 10.00 Fair CLR 78.8 68 70% 81 29.83 0.0
29 22:35 S 9 10.00 Fair CLR 78.8 68 70% 81 29.83 0.0
29 22:15 S 10 10.00 Fair CLR 80.6 69.8 70% 84 29.83 0.0
29 21:55 S 12 10.00 Fair CLR 80.6 69.8 70% 84 29.83 0.0
29 21:35 S 9 10.00 Fair CLR 80.6 69.8 70% 84 29.83 0.0
29 21:15 S 8 10.00 Fair CLR 80.6 71.6 74% 85 29.82 0.0
29 20:55 S 7 10.00 Fair CLR 80.6 71.6 74% 85 29.81 0.0
29 20:35 S 8 10.00 Fair CLR 80.6 71.6 74% 85 29.8 0.0
29 20:15 S 8 10.00 Fair CLR 80.6 71.6 74% 85 29.8 0.0
29 19:55 S 8 10.00 Fair CLR 82.4 71.6 70% 87 29.8 0.0
29 19:35 S 7 8.00 Fair CLR 82.4 71.6 70% 87 29.8 0.0
29 19:15 S 8 7.00 Fair CLR 84.2 71.6 66% 90 29.8 0.0
29 18:55 S 12 G 18 10.00 Fair CLR 86 71.6 89.2 82.6 62% 92 29.81 0.0
29 18:35 S 10 G 18 10.00 Fair CLR 86 71.6 62% 92 29.81 0.0
29 18:15 S 12 10.00 Fair CLR 87.8 71.6 59% 94 29.81 0.0
29 17:57 S 12 10.00 Fair CLR 87.8 71.6 59% 94 29.82 0.0
29 17:35 S 14 G 21 10.00 Fair CLR 89.6 69.8 52% 95 29.82 0.0
29 17:15 S 14 G 21 10.00 Fair CLR 89.6 71.6 55% 96 29.82 0.0
29 16:55 S 14 G 18 10.00 Fair CLR 87.8 71.6 59% 94 29.82 0.0
29 16:36 S 12 10.00 Fair CLR 86 71.6 62% 92 29.83 0.0
29 16:15 S 9 10.00 Fair CLR 84.2 71.6 66% 90 29.84 0.0
29 15:55 S 9 10.00 Fair CLR 84.2 71.6 66% 90 29.84 0.0
29 15:35 S 10 10.00 Fair CLR 84.2 71.6 66% 90 29.85 0.0
29 15:15 S 12 G 18 10.00 Fair CLR 86 71.6 62% 92 29.85 0.0
29 14:55 S 14 G 23 10.00 Fair CLR 86 69.8 59% 91 29.85 0.0
29 14:35 S 17 G 26 10.00 Fair CLR 87.8 69.8 55% 93 29.86 0.0
29 14:15 S 17 G 25 10.00 Fair CLR 87.8 68 52% 91 29.86 0.0
29 13:55 S 15 10.00 Fair CLR 87.8 68 52% 91 29.88 0.0
29 13:35 S 13 G 22 10.00 Fair CLR 86 68 55% 89 29.89 0.0
29 13:15 S 14 10.00 Fair CLR 84.2 68 58% 87 29.9 0.0
29 12:56 S 13 G 17 10.00 Fair CLR 84.2 68 58% 87 29.91 0.0
29 12:35 S 10 10.00 Fair CLR 82.4 66.2 58% 85 29.92 0.0
29 12:15 SE 10 10.00 Fair CLR 82.4 66.2 58% 85 29.93 0.0
29 11:55 SE 10 10.00 Fair CLR 80.6 64.4 58% 82 29.94 0.0
29 11:35 SE 9 10.00 Fair CLR 78.8 64.4 61% 81 29.94 0.0
29 11:15 S 12 G 18 10.00 Fair CLR 78.8 62.6 58% 80 29.94 0.0
29 10:55 S 16 G 23 10.00 Fair CLR 80.6 64.4 58% 82 29.93 0.0
29 10:35 S 16 G 21 10.00 Fair CLR 80.6 64.4 58% 82 29.93 0.0
29 10:15 S 13 10.00 Fair CLR 77 64.4 65% 79 29.94 0.0
29 09:55 S 13 G 20 10.00 Fair CLR 75.2 64.4 69% 77 29.94 0.0
29 09:35 S 14 10.00 Fair CLR 73.4 62.6 69% 29.95 0.0
29 09:15 S 12 10.00 Fair CLR 71.6 62.6 73% 29.96 0.0
29 08:55 S 10 10.00 A Few Clouds FEW110 69.8 62.6 78% 29.96 0.0
29 08:35 S 10 10.00 A Few Clouds FEW110 68 60.8 78% 29.96 0.0
29 08:15 S 12 10.00 Fair CLR 68 60.8 78% 29.97 0.0
29 07:55 S 9 10.00 A Few Clouds FEW100 66.2 60.8 83% 29.96 0.0
29 07:35 S 8 10.00 A Few Clouds FEW100 66.2 60.8 83% 29.97 0.0
29 07:15 S 8 10.00 Fair CLR 66.2 60.8 83% 29.97 0.0
29 06:55 S 8 10.00 Fair CLR 66.2 60.8 68.5 65.8 83% 29.97 0.0
29 06:35 S 8 10.00 Fair CLR 66.2 60.8 83% 29.98 0.0
29 06:15 S 10 10.00 A Few Clouds FEW110 66.2 60.8 83% 29.99 0.0
29 05:55 S 7 10.00 Mostly Cloudy BKN110 66.2 60.8 83% 29.98 0.0
29 05:35 S 6 10.00 Overcast OVC095 68 60.8 78% 29.99 0.0
29 05:15 S 6 10.00 Overcast OVC095 68 60.8 78% 30 0.0
29 04:55 S 6 10.00 Mostly Cloudy BKN095 66.2 60.8 83% 29.99 0.0
29 04:35 S 8 10.00 Fair CLR 68 60.8 78% 29.99 0.0
29 04:15 S 7 10.00 Fair CLR 68 62.6 83% 29.99 0.0
29 03:55 S 9 10.00 Fair CLR 66.2 60.8 83% 30 0.0
29 03:35 S 7 10.00 Fair CLR 68 62.6 83% 30.01 0.0
29 03:15 S 8 10.00 Fair CLR 68 62.6 83% 30.01 0.0
29 02:55 S 8 10.00 Fair CLR 68 62.6 83% 30.01 0.0
29 02:35 S 7 10.00 Fair CLR 68 62.6 83% 30.01 0.0
29 02:15 S 5 10.00 Fair CLR 68 62.6 83% 30.02 0.0
29 01:55 S 6 10.00 Fair CLR 68 62.6 83% 30.02 0.0
29 01:35 S 8 10.00 Fair CLR 68 62.6 83% 30.01 0.0
29 01:15 S 7 10.00 Fair CLR 68 62.6 83% 30.02 0.0
29 00:55 S 6 10.00 Fair CLR 68 62.6 81.7 68.2 83% 30.03 0.0
29 00:35 S 6 10.00 Fair CLR 68 62.6 83% 30.03 0.0
29 00:15 S 5 10.00 Fair CLR 68 62.6 83% 30.03 0.0
28 23:55 S 5 10.00 Fair CLR 68 62.6 83% 30.03 0.0
28 23:36 S 6 10.00 Fair CLR 69.8 62.6 78% 30.02 0.0
28 23:15 S 5 10.00 Fair CLR 68 64.4 88% 30.03 0.0
28 22:55 S 5 10.00 Fair CLR 69.8 64.4 83% 30.03 0.0
28 22:35 S 5 10.00 Fair CLR 69.8 64.4 83% 30.04 0.0
28 22:15 Vrbl 5 10.00 Fair CLR 69.8 64.4 83% 30.04 0.0
28 21:55 S 6 10.00 Fair CLR 71.6 64.4 78% 30.04 0.0
28 21:35 Vrbl 3 10.00 Fair CLR 69.8 64.4 83% 30.04 0.0
28 21:15 SW 2 9.00 Fair CLR 69.8 64.4 83% 30.04 0.0
28 20:55 S 2 6.00 Fair with Haze CLR 71.6 64.4 78% 30.03 0.0
28 20:35 S 3 9.00 Fair CLR 73.4 64.4 74% 30.03 0.0
28 20:15 S 6 10.00 Fair CLR 73.4 64.4 74% 30.02 0.0
28 19:55 S 7 10.00 Fair CLR 75.2 64.4 69% 77 30.02 0.0
28 19:35 S 7 9.00 Fair CLR 78.8 64.4 61% 81 30.03 0.0
28 19:15 S 8 10.00 Fair CLR 80.6 66.2 62% 83 30.03 0.0
28 18:55 S 8 10.00 Fair CLR 80.6 66.2 84.7 81.1 62% 83 30.04 0.0
28 18:35 S 8 10.00 Fair CLR 82.4 66.2 58% 85 30.04 0.0
28 18:15 S 8 10.00 Fair CLR 82.4 66.2 58% 85 30.05 0.0
28 17:55 S 8 10.00 Fair CLR 82.4 64.4 55% 84 30.05 0.0
28 17:35 S 13 G 17 10.00 Fair CLR 84.2 64.4 51% 86 30.05 0.0
28 17:15 S 13 10.00 Fair CLR 84.2 64.4 51% 86 30.05 0.0
28 16:55 S 8 10.00 Fair CLR 84.2 64.4 51% 86 30.06 0.0
28 16:15 S 10 10.00 Fair CLR 84.2 64.4 51% 86 30.06 0.0
28 15:55 S 10 10.00 Fair CLR 84.2 64.4 51% 86 30.06 0.0
28 15:35 S 12 10.00 Fair CLR 84.2 64.4 51% 86 30.08 0.0
28 15:15 S 12 10.00 Fair CLR 84.2 64.4 51% 86 30.08 0.0
28 14:55 S 12 10.00 Fair CLR 84.2 64.4 51% 86 30.1 0.0
28 14:35 S 14 10.00 Fair CLR 84.2 64.4 51% 86 30.1 0.0
28 14:15 S 10 10.00 Fair CLR 82.4 64.4 55% 84 30.11 0.0
28 13:55 S 12 G 17 10.00 Fair CLR 82.4 64.4 55% 84 30.12 0.0
28 13:35 S 12 10.00 Fair CLR 82.4 62.6 51% 83 30.12 0.0
28 13:15 S 13 G 16 10.00 Fair CLR 82.4 62.6 51% 83 30.13 0.0
28 12:55 SW 12 10.00 Fair CLR 82.4 64.4 82 57.9 55% 84 30.14 0.0
28 12:35 S 13 G 20 10.00 Fair CLR 80.6 64.4 58% 82 30.15 0.0
28 12:15 S 9 10.00 Fair CLR 80.6 64.4 58% 82 30.15 0.0
28 11:56 S 14 10.00 Fair CLR 80.6 64.4 58% 82 30.15 0.0
28 11:35 S 13 10.00 Fair CLR 80.6 64.4 58% 82 30.15 0.0
28 11:15 S 12 10.00 Fair CLR 78.8 64.4 61% 81 30.15 0.0
28 10:55 S 8 10.00 Fair CLR 78.8 64.4 61% 81 30.16 0.0
28 10:35 S 8 10.00 Fair CLR 77 64.4 65% 79 30.16 0.0
28 10:15 S 8 10.00 Fair CLR 75.2 66.2 74% 77 30.16 0.0
28 09:55 S 5 10.00 Fair CLR 73.4 64.4 74% 30.16 0.0
28 09:35 S 5 10.00 Fair CLR 71.6 64.4 78% 30.16 0.0
28 09:15 Vrbl 5 10.00 Fair CLR 69.8 64.4 83% 30.16 0.0
28 08:55 W 7 10.00 Fair CLR 69.8 64.4 83% 30.17 0.0
28 08:35 Calm 10.00 Fair CLR 68 62.6 83% 30.16 0.0
28 08:15 Calm 10.00 Fair CLR 66.2 62.6 88% 30.16 0.0
28 07:55 Calm 8.00 A Few Clouds FEW085 FEW110 64.4 64.4 100% 30.16 0.0
28 07:35 W 1 7.00 Fog/Mist SCT085 BKN110 62.6 62.6 100% 30.15 0.0
28 07:15 E 1 7.00 Mostly Cloudy BKN085 BKN120 60.8 60.8 100% 30.15 0.0
28 06:55 Calm 3.00 Fog/Mist FEW085 59 59 63.1 57.7 100% 30.15 0.0
28 06:35 Calm 3.00 Fog/Mist CLR 59 59 100% 30.14 0.0
28 06:15 NE 1 6.00 Fog/Mist CLR 59 59 100% 30.14 0.0
28 05:55 NE 2 10.00 Partly Cloudy FEW044 SCT080 59 59 100% 30.14 0.0
28 05:35 NE 3 10.00 Overcast SCT046 BKN080 OVC090 60.8 60.8 100% 30.14 0.0
28 05:15 N 1 9.00 Mostly Cloudy FEW046 BKN080 59 59 100% 30.13 0.0
28 04:55 NW 2 7.00 Mostly Cloudy BKN080 59 59 100% 30.12 0.0
28 04:35 NW 2 9.00 Fair CLR 60.8 60.8 100% 30.11 0.0
28 04:15 NE 2 10.00 A Few Clouds FEW085 59 59 100% 30.11 0.0
28 03:55 E 2 6.00 Fog/Mist CLR 59 59 100% 30.11 0.0
28 03:35 Vrbl 1 8.00 A Few Clouds FEW120 60.8 60.8 100% 30.11 0.0
28 03:15 N 2 8.00 A Few Clouds FEW120 60.8 60.8 100% 30.11 0.0
28 02:55 NE 3 10.00 Partly Cloudy SCT120 60.8 60.8 100% 30.11 0.0
28 02:35 NE 1 7.00 Fog/Mist CLR 60.8 60.8 100% 30.11 0.0
28 02:15 N 1 7.00 Fair CLR 60.8 60.8 100% 30.11 0.0
Date Time (cdt) Wind (mph) Vis. (mi.) Weather Sky Cond. Air Dwpt Max. Min. Relative Humidity Wind Chill (°F) Heat Index (°F) altimeter (in) sea level (mb) 1 hr 3 hr 6 hr
6 hour
Temperature (ºF) Pressure Precipitation (in)